sensor_id;sensor_type;location;lat;lon;timestamp;pressure;altitude;pressure_sealevel;temperature;humidity
60817;BME280;51921;51.518;-3.188;2022-08-01T00:00:51;101622.28;;;16.78;60.24
60817;BME280;51921;51.518;-3.188;2022-08-01T00:03:17;101632.93;;;16.22;62.75
60817;BME280;51921;51.518;-3.188;2022-08-01T00:05:42;101633.95;;;16.17;63.29
60817;BME280;51921;51.518;-3.188;2022-08-01T00:08:08;101633.95;;;15.71;63.96
60817;BME280;51921;51.518;-3.188;2022-08-01T00:10:33;101631.64;;;16.03;63.90
60817;BME280;51921;51.518;-3.188;2022-08-01T00:12:58;101633.07;;;15.42;64.25
60817;BME280;51921;51.518;-3.188;2022-08-01T00:15:24;101635.02;;;15.33;65.31
60817;BME280;51921;51.518;-3.188;2022-08-01T00:17:49;101628.58;;;15.90;64.69
60817;BME280;51921;51.518;-3.188;2022-08-01T00:20:15;101630.25;;;16.19;62.92
60817;BME280;51921;51.518;-3.188;2022-08-01T00:22:40;101627.85;;;16.63;60.72
60817;BME280;51921;51.518;-3.188;2022-08-01T00:25:06;101630.31;;;16.82;60.85
60817;BME280;51921;51.518;-3.188;2022-08-01T00:27:31;101628.96;;;16.11;61.57
60817;BME280;51921;51.518;-3.188;2022-08-01T00:29:56;101625.50;;;17.59;58.45
60817;BME280;51921;51.518;-3.188;2022-08-01T00:32:21;101624.99;;;16.21;60.56
60817;BME280;51921;51.518;-3.188;2022-08-01T00:34:47;101623.22;;;16.63;60.31
60817;BME280;51921;51.518;-3.188;2022-08-01T00:37:13;101625.41;;;16.43;60.48
60817;BME280;51921;51.518;-3.188;2022-08-01T00:39:37;101626.67;;;17.05;59.51
60817;BME280;51921;51.518;-3.188;2022-08-01T00:42:06;101623.40;;;16.90;59.10
60817;BME280;51921;51.518;-3.188;2022-08-01T00:44:28;101617.47;;;17.70;58.23
60817;BME280;51921;51.518;-3.188;2022-08-01T00:46:54;101620.96;;;18.02;56.75
60817;BME280;51921;51.518;-3.188;2022-08-01T00:49:19;101621.89;;;16.66;60.47
60817;BME280;51921;51.518;-3.188;2022-08-01T00:51:44;101617.51;;;16.61;60.04
60817;BME280;51921;51.518;-3.188;2022-08-01T00:54:10;101612.75;;;17.34;58.56
60817;BME280;51921;51.518;-3.188;2022-08-01T00:56:35;101608.21;;;17.10;58.20
60817;BME280;51921;51.518;-3.188;2022-08-01T00:59:01;101608.09;;;17.92;56.50
60817;BME280;51921;51.518;-3.188;2022-08-01T01:01:26;101611.36;;;18.48;55.02
60817;BME280;51921;51.518;-3.188;2022-08-01T01:03:52;101611.15;;;18.29;55.56
60817;BME280;51921;51.518;-3.188;2022-08-01T01:06:27;101612.85;;;18.47;55.36
60817;BME280;51921;51.518;-3.188;2022-08-01T01:08:53;101610.37;;;18.11;56.17
60817;BME280;51921;51.518;-3.188;2022-08-01T01:11:13;101611.46;;;17.61;56.71
60817;BME280;51921;51.518;-3.188;2022-08-01T01:13:37;101613.27;;;17.49;56.37
60817;BME280;51921;51.518;-3.188;2022-08-01T01:16:00;101612.71;;;17.49;56.77
60817;BME280;51921;51.518;-3.188;2022-08-01T01:18:29;101607.49;;;18.29;55.33
60817;BME280;51921;51.518;-3.188;2022-08-01T01:20:54;101604.83;;;18.03;55.87
60817;BME280;51921;51.518;-3.188;2022-08-01T01:23:23;101604.43;;;18.31;55.41
60817;BME280;51921;51.518;-3.188;2022-08-01T01:25:46;101606.58;;;18.12;55.49
60817;BME280;51921;51.518;-3.188;2022-08-01T01:28:10;101609.31;;;18.42;54.84
60817;BME280;51921;51.518;-3.188;2022-08-01T01:30:31;101614.69;;;18.17;55.13
60817;BME280;51921;51.518;-3.188;2022-08-01T01:32:59;101613.81;;;18.38;54.54
60817;BME280;51921;51.518;-3.188;2022-08-01T01:35:24;101610.30;;;18.39;54.53
60817;BME280;51921;51.518;-3.188;2022-08-01T01:37:47;101606.53;;;17.33;56.08
60817;BME280;51921;51.518;-3.188;2022-08-01T01:40:13;101607.10;;;17.13;56.04
60817;BME280;51921;51.518;-3.188;2022-08-01T01:42:37;101606.95;;;17.32;55.63
60817;BME280;51921;51.518;-3.188;2022-08-01T01:45:05;101610.40;;;16.92;57.10
60817;BME280;51921;51.518;-3.188;2022-08-01T01:47:28;101605.02;;;17.42;56.72
60817;BME280;51921;51.518;-3.188;2022-08-01T01:49:54;101605.07;;;18.24;55.54
60817;BME280;51921;51.518;-3.188;2022-08-01T01:52:19;101604.26;;;17.62;56.95
60817;BME280;51921;51.518;-3.188;2022-08-01T01:54:47;101601.98;;;17.47;56.75
60817;BME280;51921;51.518;-3.188;2022-08-01T01:57:09;101603.06;;;18.27;54.72
60817;BME280;51921;51.518;-3.188;2022-08-01T01:59:36;101606.53;;;17.40;56.92
60817;BME280;51921;51.518;-3.188;2022-08-01T02:02:04;101607.98;;;18.05;55.35
60817;BME280;51921;51.518;-3.188;2022-08-01T02:04:27;101606.86;;;18.12;55.33
60817;BME280;51921;51.518;-3.188;2022-08-01T02:06:52;101610.62;;;18.67;53.95
60817;BME280;51921;51.518;-3.188;2022-08-01T02:09:17;101611.78;;;18.84;54.03
60817;BME280;51921;51.518;-3.188;2022-08-01T02:11:42;101610.67;;;18.21;54.77
60817;BME280;51921;51.518;-3.188;2022-08-01T02:14:07;101609.22;;;18.26;54.98
60817;BME280;51921;51.518;-3.188;2022-08-01T02:16:35;101617.13;;;18.51;54.30
60817;BME280;51921;51.518;-3.188;2022-08-01T02:18:57;101616.23;;;17.48;55.38
60817;BME280;51921;51.518;-3.188;2022-08-01T02:21:28;101614.36;;;17.92;55.39
60817;BME280;51921;51.518;-3.188;2022-08-01T02:23:48;101620.19;;;18.37;54.61
60817;BME280;51921;51.518;-3.188;2022-08-01T02:26:16;101622.52;;;19.12;53.55
60817;BME280;51921;51.518;-3.188;2022-08-01T02:28:45;101619.52;;;18.82;53.75
60817;BME280;51921;51.518;-3.188;2022-08-01T02:31:07;101622.45;;;18.95;53.62
60817;BME280;51921;51.518;-3.188;2022-08-01T02:33:34;101624.41;;;19.06;53.88
60817;BME280;51921;51.518;-3.188;2022-08-01T02:35:59;101624.35;;;18.83;54.28
60817;BME280;51921;51.518;-3.188;2022-08-01T02:38:23;101616.41;;;19.22;53.38
60817;BME280;51921;51.518;-3.188;2022-08-01T02:40:47;101615.07;;;19.07;53.73
60817;BME280;51921;51.518;-3.188;2022-08-01T02:43:12;101612.18;;;18.92;53.65
60817;BME280;51921;51.518;-3.188;2022-08-01T02:45:39;101609.03;;;17.85;55.29
60817;BME280;51921;51.518;-3.188;2022-08-01T02:48:04;101621.43;;;14.32;64.20
60817;BME280;51921;51.518;-3.188;2022-08-01T02:50:28;101621.07;;;16.04;62.72
60817;BME280;51921;51.518;-3.188;2022-08-01T02:52:52;101621.73;;;14.65;65.83
60817;BME280;51921;51.518;-3.188;2022-08-01T02:55:18;101627.21;;;14.50;67.96
60817;BME280;51921;51.518;-3.188;2022-08-01T02:57:44;101628.19;;;16.92;61.66
60817;BME280;51921;51.518;-3.188;2022-08-01T03:00:09;101625.31;;;17.07;60.28
60817;BME280;51921;51.518;-3.188;2022-08-01T03:02:34;101624.45;;;17.41;59.42
60817;BME280;51921;51.518;-3.188;2022-08-01T03:05:00;101618.23;;;18.10;57.46
60817;BME280;51921;51.518;-3.188;2022-08-01T03:07:24;101610.50;;;18.26;57.56
60817;BME280;51921;51.518;-3.188;2022-08-01T03:09:50;101614.29;;;16.29;60.14
60817;BME280;51921;51.518;-3.188;2022-08-01T03:12:17;101616.07;;;17.16;60.00
60817;BME280;51921;51.518;-3.188;2022-08-01T03:14:42;101618.24;;;17.54;57.75
60817;BME280;51921;51.518;-3.188;2022-08-01T03:17:06;101616.06;;;17.20;58.12
60817;BME280;51921;51.518;-3.188;2022-08-01T03:19:31;101614.70;;;17.87;57.86
60817;BME280;51921;51.518;-3.188;2022-08-01T03:21:57;101604.99;;;17.86;57.18
60817;BME280;51921;51.518;-3.188;2022-08-01T03:24:21;101605.01;;;18.10;56.51
60817;BME280;51921;51.518;-3.188;2022-08-01T03:26:47;101606.60;;;12.44;70.86
60817;BME280;51921;51.518;-3.188;2022-08-01T03:29:15;101605.06;;;11.99;74.92
60817;BME280;51921;51.518;-3.188;2022-08-01T03:31:38;101602.74;;;12.62;75.60
60817;BME280;51921;51.518;-3.188;2022-08-01T03:34:03;101599.87;;;12.03;76.32
60817;BME280;51921;51.518;-3.188;2022-08-01T03:36:29;101601.79;;;11.46;79.37
60817;BME280;51921;51.518;-3.188;2022-08-01T03:38:57;101604.92;;;14.21;72.24
60817;BME280;51921;51.518;-3.188;2022-08-01T03:41:21;101611.35;;;15.02;68.19
60817;BME280;51921;51.518;-3.188;2022-08-01T03:43:48;101608.76;;;16.37;64.03
60817;BME280;51921;51.518;-3.188;2022-08-01T03:46:13;101603.59;;;17.09;61.33
60817;BME280;51921;51.518;-3.188;2022-08-01T03:48:39;101608.11;;;17.30;60.04
60817;BME280;51921;51.518;-3.188;2022-08-01T03:51:01;101612.79;;;18.28;57.40
60817;BME280;51921;51.518;-3.188;2022-08-01T03:53:30;101608.66;;;18.74;55.80
60817;BME280;51921;51.518;-3.188;2022-08-01T03:55:53;101608.61;;;16.88;57.32
60817;BME280;51921;51.518;-3.188;2022-08-01T03:58:17;101608.17;;;14.40;63.05
60817;BME280;51921;51.518;-3.188;2022-08-01T04:00:42;101603.65;;;14.08;66.80
60817;BME280;51921;51.518;-3.188;2022-08-01T04:03:08;101597.34;;;14.01;68.27
60817;BME280;51921;51.518;-3.188;2022-08-01T04:05:33;101594.67;;;13.31;69.87
60817;BME280;51921;51.518;-3.188;2022-08-01T04:07:58;101594.98;;;15.92;63.34
60817;BME280;51921;51.518;-3.188;2022-08-01T04:10:25;101597.82;;;16.53;62.17
60817;BME280;51921;51.518;-3.188;2022-08-01T04:12:49;101597.61;;;17.21;59.75
60817;BME280;51921;51.518;-3.188;2022-08-01T04:15:14;101596.03;;;17.33;58.66
60817;BME280;51921;51.518;-3.188;2022-08-01T04:17:40;101597.67;;;17.81;57.58
60817;BME280;51921;51.518;-3.188;2022-08-01T04:20:06;101594.55;;;17.69;56.73
60817;BME280;51921;51.518;-3.188;2022-08-01T04:22:31;101590.60;;;16.82;57.59
60817;BME280;51921;51.518;-3.188;2022-08-01T04:24:57;101595.36;;;17.67;57.24
60817;BME280;51921;51.518;-3.188;2022-08-01T04:27:24;101595.11;;;18.09;56.54
60817;BME280;51921;51.518;-3.188;2022-08-01T04:29:48;101598.59;;;16.69;57.85
60817;BME280;51921;51.518;-3.188;2022-08-01T04:32:13;101598.79;;;16.86;58.12
60817;BME280;51921;51.518;-3.188;2022-08-01T04:34:39;101603.46;;;17.30;58.12
60817;BME280;51921;51.518;-3.188;2022-08-01T04:37:03;101606.08;;;17.99;56.46
60817;BME280;51921;51.518;-3.188;2022-08-01T04:39:31;101599.89;;;18.17;56.13
60817;BME280;51921;51.518;-3.188;2022-08-01T04:41:54;101603.43;;;17.32;57.18
60817;BME280;51921;51.518;-3.188;2022-08-01T04:44:18;101604.90;;;17.94;56.33
60817;BME280;51921;51.518;-3.188;2022-08-01T04:46:44;101604.32;;;17.45;56.26
60817;BME280;51921;51.518;-3.188;2022-08-01T04:49:10;101599.40;;;18.19;56.00
60817;BME280;51921;51.518;-3.188;2022-08-01T04:51:35;101601.31;;;17.31;57.35
60817;BME280;51921;51.518;-3.188;2022-08-01T04:54:00;101601.25;;;17.95;56.65
60817;BME280;51921;51.518;-3.188;2022-08-01T04:56:25;101601.94;;;16.68;58.82
60817;BME280;51921;51.518;-3.188;2022-08-01T04:58:51;101602.79;;;16.55;58.64
60817;BME280;51921;51.518;-3.188;2022-08-01T05:01:16;101605.41;;;17.32;56.49
60817;BME280;51921;51.518;-3.188;2022-08-01T05:03:41;101607.22;;;17.70;55.91
60817;BME280;51921;51.518;-3.188;2022-08-01T05:06:07;101613.18;;;18.21;55.59
60817;BME280;51921;51.518;-3.188;2022-08-01T05:08:32;101610.83;;;18.18;55.59
60817;BME280;51921;51.518;-3.188;2022-08-01T05:10:57;101613.24;;;18.09;55.45
60817;BME280;51921;51.518;-3.188;2022-08-01T05:13:23;101621.16;;;17.11;56.37
60817;BME280;51921;51.518;-3.188;2022-08-01T05:15:48;101630.81;;;17.17;57.30
60817;BME280;51921;51.518;-3.188;2022-08-01T05:18:14;101631.90;;;16.48;58.48
60817;BME280;51921;51.518;-3.188;2022-08-01T05:20:40;101632.68;;;17.76;56.10
60817;BME280;51921;51.518;-3.188;2022-08-01T05:23:05;101635.61;;;16.99;57.44
60817;BME280;51921;51.518;-3.188;2022-08-01T05:25:30;101636.48;;;14.87;62.18
60817;BME280;51921;51.518;-3.188;2022-08-01T05:27:55;101637.55;;;14.32;66.85
60817;BME280;51921;51.518;-3.188;2022-08-01T05:30:21;101641.72;;;14.67;65.28
60817;BME280;51921;51.518;-3.188;2022-08-01T05:32:46;101636.05;;;16.86;60.91
60817;BME280;51921;51.518;-3.188;2022-08-01T05:35:11;101636.52;;;13.67;67.97
60817;BME280;51921;51.518;-3.188;2022-08-01T05:37:37;101632.06;;;13.74;68.75
60817;BME280;51921;51.518;-3.188;2022-08-01T05:40:03;101631.33;;;13.73;69.99
60817;BME280;51921;51.518;-3.188;2022-08-01T05:42:27;101633.70;;;14.37;68.99
60817;BME280;51921;51.518;-3.188;2022-08-01T05:44:53;101636.92;;;13.02;74.56
60817;BME280;51921;51.518;-3.188;2022-08-01T05:47:18;101637.54;;;11.60;80.18
60817;BME280;51921;51.518;-3.188;2022-08-01T05:49:44;101634.55;;;11.48;84.24
60817;BME280;51921;51.518;-3.188;2022-08-01T05:52:09;101635.68;;;13.40;78.10
60817;BME280;51921;51.518;-3.188;2022-08-01T05:54:34;101637.67;;;15.87;70.00
60817;BME280;51921;51.518;-3.188;2022-08-01T05:57:00;101635.37;;;16.44;66.21
60817;BME280;51921;51.518;-3.188;2022-08-01T05:59:25;101641.14;;;17.49;63.67
60817;BME280;51921;51.518;-3.188;2022-08-01T06:01:51;101646.32;;;17.84;61.01
60817;BME280;51921;51.518;-3.188;2022-08-01T06:04:16;101650.53;;;17.95;60.34
60817;BME280;51921;51.518;-3.188;2022-08-01T06:06:42;101650.55;;;17.63;60.48
60817;BME280;51921;51.518;-3.188;2022-08-01T06:09:07;101652.77;;;17.96;60.90
60817;BME280;51921;51.518;-3.188;2022-08-01T06:11:32;101647.80;;;17.38;62.42
60817;BME280;51921;51.518;-3.188;2022-08-01T06:13:58;101649.01;;;13.62;70.40
60817;BME280;51921;51.518;-3.188;2022-08-01T06:16:23;101655.76;;;13.33;76.01
60817;BME280;51921;51.518;-3.188;2022-08-01T06:18:48;101660.93;;;12.59;78.83
60817;BME280;51921;51.518;-3.188;2022-08-01T06:21:14;101660.81;;;13.86;75.13
60817;BME280;51921;51.518;-3.188;2022-08-01T06:23:39;101658.19;;;13.16;75.68
60817;BME280;51921;51.518;-3.188;2022-08-01T06:26:05;101658.26;;;13.76;73.37
60817;BME280;51921;51.518;-3.188;2022-08-01T06:28:30;101649.35;;;11.99;79.76
60817;BME280;51921;51.518;-3.188;2022-08-01T06:30:56;101648.94;;;11.49;83.70
60817;BME280;51921;51.518;-3.188;2022-08-01T06:33:21;101644.12;;;12.15;84.73
60817;BME280;51921;51.518;-3.188;2022-08-01T06:35:46;101649.31;;;14.43;76.34
60817;BME280;51921;51.518;-3.188;2022-08-01T06:38:12;101659.33;;;15.90;69.86
60817;BME280;51921;51.518;-3.188;2022-08-01T06:40:37;101661.84;;;16.75;63.79
60817;BME280;51921;51.518;-3.188;2022-08-01T06:43:03;101664.19;;;16.37;66.21
60817;BME280;51921;51.518;-3.188;2022-08-01T06:45:28;101665.40;;;17.49;60.04
60817;BME280;51921;51.518;-3.188;2022-08-01T06:47:53;101669.91;;;17.87;59.40
60817;BME280;51921;51.518;-3.188;2022-08-01T06:50:19;101672.78;;;17.46;58.01
60817;BME280;51921;51.518;-3.188;2022-08-01T06:52:44;101670.24;;;17.57;57.73
60817;BME280;51921;51.518;-3.188;2022-08-01T06:55:10;101673.24;;;17.68;57.77
60817;BME280;51921;51.518;-3.188;2022-08-01T06:57:35;101675.72;;;17.30;59.58
60817;BME280;51921;51.518;-3.188;2022-08-01T07:00:02;101674.10;;;15.76;62.49
60817;BME280;51921;51.518;-3.188;2022-08-01T07:02:26;101665.51;;;14.24;66.73
60817;BME280;51921;51.518;-3.188;2022-08-01T07:04:51;101662.48;;;14.48;70.55
60817;BME280;51921;51.518;-3.188;2022-08-01T07:07:17;101659.88;;;14.00;68.72
60817;BME280;51921;51.518;-3.188;2022-08-01T07:09:42;101657.71;;;13.02;73.30
60817;BME280;51921;51.518;-3.188;2022-08-01T07:12:08;101666.03;;;13.46;72.36
60817;BME280;51921;51.518;-3.188;2022-08-01T07:14:33;101665.70;;;14.98;67.35
60817;BME280;51921;51.518;-3.188;2022-08-01T07:16:58;101663.37;;;17.12;58.52
60817;BME280;51921;51.518;-3.188;2022-08-01T07:19:24;101664.37;;;15.03;63.64
60817;BME280;51921;51.518;-3.188;2022-08-01T07:21:49;101658.00;;;15.61;62.23
60817;BME280;51921;51.518;-3.188;2022-08-01T07:24:15;101651.21;;;14.00;67.72
60817;BME280;51921;51.518;-3.188;2022-08-01T07:26:41;101645.23;;;14.28;69.15
60817;BME280;51921;51.518;-3.188;2022-08-01T07:29:05;101644.72;;;15.43;65.35
60817;BME280;51921;51.518;-3.188;2022-08-01T07:31:31;101640.33;;;15.01;65.89
60817;BME280;51921;51.518;-3.188;2022-08-01T07:33:56;101633.83;;;12.69;71.74
60817;BME280;51921;51.518;-3.188;2022-08-01T07:36:22;101633.11;;;13.89;69.09
60817;BME280;51921;51.518;-3.188;2022-08-01T07:38:47;101638.32;;;14.25;66.83
60817;BME280;51921;51.518;-3.188;2022-08-01T07:41:12;101643.21;;;14.35;67.46
60817;BME280;51921;51.518;-3.188;2022-08-01T07:43:38;101643.08;;;15.90;61.97
60817;BME280;51921;51.518;-3.188;2022-08-01T07:46:03;101642.12;;;20.31;52.28
60817;BME280;51921;51.518;-3.188;2022-08-01T07:48:28;101635.61;;;20.73;48.46
60817;BME280;51921;51.518;-3.188;2022-08-01T07:50:54;101631.22;;;18.57;49.93
60817;BME280;51921;51.518;-3.188;2022-08-01T07:53:19;101633.93;;;17.76;51.69
60817;BME280;51921;51.518;-3.188;2022-08-01T07:55:44;101635.70;;;19.61;47.42
60817;BME280;51921;51.518;-3.188;2022-08-01T07:58:10;101631.51;;;20.00;46.64
60817;BME280;51921;51.518;-3.188;2022-08-01T08:00:35;101631.70;;;19.67;45.50
60817;BME280;51921;51.518;-3.188;2022-08-01T08:03:00;101632.85;;;21.96;41.57
60817;BME280;51921;51.518;-3.188;2022-08-01T08:05:26;101636.84;;;15.70;50.97
60817;BME280;51921;51.518;-3.188;2022-08-01T08:07:51;101645.80;;;14.91;51.88
60817;BME280;51921;51.518;-3.188;2022-08-01T08:10:16;101646.68;;;14.59;58.49
60817;BME280;51921;51.518;-3.188;2022-08-01T08:12:41;101644.55;;;15.81;53.69
60817;BME280;51921;51.518;-3.188;2022-08-01T08:15:08;101643.00;;;15.71;55.17
60817;BME280;51921;51.518;-3.188;2022-08-01T08:17:32;101640.37;;;20.12;46.28
60817;BME280;51921;51.518;-3.188;2022-08-01T08:19:58;101640.75;;;18.08;47.38
60817;BME280;51921;51.518;-3.188;2022-08-01T08:22:23;101650.56;;;19.21;47.00
60817;BME280;51921;51.518;-3.188;2022-08-01T08:24:48;101644.56;;;16.71;51.58
60817;BME280;51921;51.518;-3.188;2022-08-01T08:27:14;101635.24;;;18.23;48.30
60817;BME280;51921;51.518;-3.188;2022-08-01T08:29:39;101633.84;;;21.36;43.96
60817;BME280;51921;51.518;-3.188;2022-08-01T08:32:05;101633.06;;;22.84;39.65
60817;BME280;51921;51.518;-3.188;2022-08-01T08:34:29;101634.16;;;16.35;51.00
60817;BME280;51921;51.518;-3.188;2022-08-01T08:36:56;101630.44;;;16.17;51.92
60817;BME280;51921;51.518;-3.188;2022-08-01T08:39:20;101629.98;;;17.51;48.91
60817;BME280;51921;51.518;-3.188;2022-08-01T08:41:46;101635.48;;;19.73;47.18
60817;BME280;51921;51.518;-3.188;2022-08-01T08:44:11;101629.57;;;18.11;47.53
60817;BME280;51921;51.518;-3.188;2022-08-01T08:46:41;101631.97;;;22.02;41.04
60817;BME280;51921;51.518;-3.188;2022-08-01T08:49:03;101632.04;;;22.20;41.02
60817;BME280;51921;51.518;-3.188;2022-08-01T08:51:27;101633.93;;;24.33;36.45
60817;BME280;51921;51.518;-3.188;2022-08-01T08:53:55;101625.80;;;24.43;35.02
60817;BME280;51921;51.518;-3.188;2022-08-01T08:56:17;101621.84;;;24.47;37.91
60817;BME280;51921;51.518;-3.188;2022-08-01T08:58:44;101613.69;;;25.25;34.75
60817;BME280;51921;51.518;-3.188;2022-08-01T09:01:08;101623.94;;;24.47;35.92
60817;BME280;51921;51.518;-3.188;2022-08-01T09:03:33;101623.23;;;25.56;34.52
60817;BME280;51921;51.518;-3.188;2022-08-01T09:05:58;101624.38;;;25.78;33.80
60817;BME280;51921;51.518;-3.188;2022-08-01T09:08:23;101622.44;;;25.01;33.01
60817;BME280;51921;51.518;-3.188;2022-08-01T09:10:49;101622.34;;;23.57;36.29
60817;BME280;51921;51.518;-3.188;2022-08-01T09:13:14;101622.80;;;25.60;33.08
60817;BME280;51921;51.518;-3.188;2022-08-01T09:15:42;101624.10;;;26.45;31.90
60817;BME280;51921;51.518;-3.188;2022-08-01T09:18:05;101623.04;;;25.51;33.14
60817;BME280;51921;51.518;-3.188;2022-08-01T09:20:30;101624.42;;;24.29;33.72
60817;BME280;51921;51.518;-3.188;2022-08-01T09:22:55;101623.66;;;24.84;34.44
60817;BME280;51921;51.518;-3.188;2022-08-01T09:25:20;101623.97;;;23.27;36.87
60817;BME280;51921;51.518;-3.188;2022-08-01T09:27:45;101622.44;;;23.49;36.72
60817;BME280;51921;51.518;-3.188;2022-08-01T09:30:14;101622.18;;;22.92;36.12
60817;BME280;51921;51.518;-3.188;2022-08-01T09:32:36;101625.93;;;21.39;38.67
60817;BME280;51921;51.518;-3.188;2022-08-01T09:37:30;101625.35;;;21.91;40.07
60817;BME280;51921;51.518;-3.188;2022-08-01T09:39:55;101628.14;;;22.70;37.51
60817;BME280;51921;51.518;-3.188;2022-08-01T09:42:21;101631.13;;;20.22;41.74
60817;BME280;51921;51.518;-3.188;2022-08-01T09:44:43;101631.66;;;20.60;43.39
60817;BME280;51921;51.518;-3.188;2022-08-01T09:47:08;101637.42;;;20.41;41.73
60817;BME280;51921;51.518;-3.188;2022-08-01T09:49:35;101636.69;;;22.07;40.50
60817;BME280;51921;51.518;-3.188;2022-08-01T09:52:00;101638.53;;;23.84;36.84
60817;BME280;51921;51.518;-3.188;2022-08-01T09:54:31;101640.94;;;22.70;38.64
60817;BME280;51921;51.518;-3.188;2022-08-01T09:56:49;101648.45;;;24.16;37.24
60817;BME280;51921;51.518;-3.188;2022-08-01T09:59:14;101649.93;;;24.40;35.00
60817;BME280;51921;51.518;-3.188;2022-08-01T10:01:44;101648.04;;;20.38;39.25
60817;BME280;51921;51.518;-3.188;2022-08-01T10:04:08;101651.90;;;17.45;45.24
60817;BME280;51921;51.518;-3.188;2022-08-01T10:06:30;101651.73;;;20.44;41.57
60817;BME280;51921;51.518;-3.188;2022-08-01T10:08:55;101653.49;;;20.21;45.01
60817;BME280;51921;51.518;-3.188;2022-08-01T10:11:21;101651.48;;;17.94;49.05
60817;BME280;51921;51.518;-3.188;2022-08-01T10:13:46;101646.87;;;18.85;50.31
60817;BME280;51921;51.518;-3.188;2022-08-01T10:16:12;101650.17;;;16.13;55.52
60817;BME280;51921;51.518;-3.188;2022-08-01T10:18:37;101652.69;;;20.02;47.41
60817;BME280;51921;51.518;-3.188;2022-08-01T10:21:03;101650.49;;;20.99;43.99
60817;BME280;51921;51.518;-3.188;2022-08-01T10:23:33;101647.53;;;17.19;52.50
60817;BME280;51921;51.518;-3.188;2022-08-01T10:25:54;101645.95;;;18.91;50.67
60817;BME280;51921;51.518;-3.188;2022-08-01T10:28:20;101647.88;;;18.25;50.39
60817;BME280;51921;51.518;-3.188;2022-08-01T10:30:44;101648.28;;;18.70;48.61
60817;BME280;51921;51.518;-3.188;2022-08-01T10:33:10;101650.15;;;20.63;45.21
60817;BME280;51921;51.518;-3.188;2022-08-01T10:35:34;101647.68;;;20.64;46.67
60817;BME280;51921;51.518;-3.188;2022-08-01T10:37:59;101646.49;;;16.64;53.94
60817;BME280;51921;51.518;-3.188;2022-08-01T10:40:26;101647.28;;;19.89;50.45
60817;BME280;51921;51.518;-3.188;2022-08-01T10:42:51;101645.84;;;20.77;46.86
60817;BME280;51921;51.518;-3.188;2022-08-01T10:45:16;101647.57;;;18.38;48.28
60817;BME280;51921;51.518;-3.188;2022-08-01T10:47:46;101642.79;;;18.16;51.98
60817;BME280;51921;51.518;-3.188;2022-08-01T10:50:13;101642.80;;;17.19;52.76
60817;BME280;51921;51.518;-3.188;2022-08-01T10:52:31;101646.59;;;19.32;49.30
60817;BME280;51921;51.518;-3.188;2022-08-01T10:55:02;101645.48;;;20.74;47.21
60817;BME280;51921;51.518;-3.188;2022-08-01T10:57:22;101640.88;;;21.36;45.06
60817;BME280;51921;51.518;-3.188;2022-08-01T10:59:49;101639.17;;;22.94;42.19
60817;BME280;51921;51.518;-3.188;2022-08-01T11:04:47;101630.56;;;22.76;39.67
60817;BME280;51921;51.518;-3.188;2022-08-01T11:07:05;101631.07;;;23.22;40.48
60817;BME280;51921;51.518;-3.188;2022-08-01T11:09:31;101632.20;;;23.87;39.84
60817;BME280;51921;51.518;-3.188;2022-08-01T11:12:00;101627.96;;;22.49;40.85
60817;BME280;51921;51.518;-3.188;2022-08-01T11:14:19;101623.68;;;23.94;40.63
60817;BME280;51921;51.518;-3.188;2022-08-01T11:16:44;101621.67;;;23.65;38.61
60817;BME280;51921;51.518;-3.188;2022-08-01T11:19:10;101619.97;;;20.76;44.04
60817;BME280;51921;51.518;-3.188;2022-08-01T11:21:58;101621.06;;;19.27;47.34
60817;BME280;51921;51.518;-3.188;2022-08-01T11:24:01;101603.02;;;16.73;54.35
60817;BME280;51921;51.518;-3.188;2022-08-01T11:26:26;101606.04;;;18.24;54.35
60817;BME280;51921;51.518;-3.188;2022-08-01T11:29:10;101603.11;;;21.08;49.41
60817;BME280;51921;51.518;-3.188;2022-08-01T11:31:27;101595.46;;;22.43;43.94
60817;BME280;51921;51.518;-3.188;2022-08-01T11:33:48;101599.67;;;22.76;42.52
60817;BME280;51921;51.518;-3.188;2022-08-01T11:36:17;101598.27;;;21.32;46.11
60817;BME280;51921;51.518;-3.188;2022-08-01T11:38:32;101601.03;;;22.52;44.15
60817;BME280;51921;51.518;-3.188;2022-08-01T11:43:23;101601.37;;;23.83;38.76
60817;BME280;51921;51.518;-3.188;2022-08-01T11:45:49;101598.41;;;24.07;40.25
60817;BME280;51921;51.518;-3.188;2022-08-01T11:48:18;101592.77;;;21.74;41.63
60817;BME280;51921;51.518;-3.188;2022-08-01T11:50:39;101591.83;;;23.44;42.25
60817;BME280;51921;51.518;-3.188;2022-08-01T11:53:05;101589.74;;;23.93;40.16
60817;BME280;51921;51.518;-3.188;2022-08-01T11:55:30;101590.21;;;24.72;39.02
60817;BME280;51921;51.518;-3.188;2022-08-01T11:57:59;101588.25;;;24.38;38.72
60817;BME280;51921;51.518;-3.188;2022-08-01T12:00:20;101582.69;;;23.26;41.09
60817;BME280;51921;51.518;-3.188;2022-08-01T12:02:46;101579.27;;;22.18;43.35
60817;BME280;51921;51.518;-3.188;2022-08-01T12:05:12;101577.00;;;22.96;42.49
60817;BME280;51921;51.518;-3.188;2022-08-01T12:07:36;101579.16;;;21.86;43.78
60817;BME280;51921;51.518;-3.188;2022-08-01T12:10:04;101578.93;;;23.18;42.34
60817;BME280;51921;51.518;-3.188;2022-08-01T12:12:27;101568.55;;;23.44;43.59
60817;BME280;51921;51.518;-3.188;2022-08-01T12:14:54;101559.23;;;23.41;42.27
60817;BME280;51921;51.518;-3.188;2022-08-01T12:17:17;101564.07;;;24.14;41.88
60817;BME280;51921;51.518;-3.188;2022-08-01T12:19:42;101565.42;;;22.62;43.09
60817;BME280;51921;51.518;-3.188;2022-08-01T12:22:10;101569.18;;;23.23;43.15
60817;BME280;51921;51.518;-3.188;2022-08-01T12:24:33;101557.35;;;22.43;43.53
60817;BME280;51921;51.518;-3.188;2022-08-01T12:26:58;101561.75;;;23.40;42.12
60817;BME280;51921;51.518;-3.188;2022-08-01T12:29:34;101557.72;;;22.51;45.27
60817;BME280;51921;51.518;-3.188;2022-08-01T12:31:49;101555.09;;;23.47;41.76
60817;BME280;51921;51.518;-3.188;2022-08-01T12:34:25;101553.31;;;24.28;40.25
60817;BME280;51921;51.518;-3.188;2022-08-01T12:36:39;101549.37;;;24.50;39.32